• Join FlightAware (Why Join?)
  • Login
  • US Flag 
06:22PM EDT


 

Airport Tracker/Info


-or-


 

Live Flight TrackerFlight Track Log ✈ EJA749 ✈ 11-Nov-2013 ✈ KFLL - KDPA

Flight Track Log - Related Links

Times and Time Zones

All times are in EST time to prevent confusion due to time zone crossing. See the EJA749 flight status page for this flight to view local times or setup timezone preferences in your user account.

Time Position Orientation Groundspeed Altitude Reporting Facility
EST Latitude Longitude Course Direction KTS MPH feet Rate Location/Type
04:09PM 27.8702 -80.9253 340° North  Level Estimated
04:10PM 27.9835 -80.9695 341° North  Level FlightAware Approximate
04:11PM 28.0968 -81.0138 341° North  Level FlightAware Approximate
04:12PM 28.2100 -81.0581 341° North  Level FlightAware Approximate
04:13PM 28.3232 -81.1026 341° North  Level FlightAware Approximate
04:14PM 28.4365 -81.1471 341° North  Level FlightAware Approximate
04:15PM 28.5497 -81.1917 341° North  Level FlightAware Approximate
04:16PM 28.6612 -81.2415 340° North  Level Estimated
04:17PM 28.7744 -81.2864 341° North  Level FlightAware Approximate
04:18PM 28.8875 -81.3315 341° North  Level FlightAware Approximate
04:19PM 29.0006 -81.3767 341° North  Level FlightAware Approximate
04:20PM 29.1121 -81.4269 340° North  Level Estimated
04:21PM 29.2251 -81.4724 341° North  Level FlightAware Approximate
04:22PM 29.3382 -81.5180 341° North  Level FlightAware Approximate
04:23PM 29.4512 -81.5636 341° North  Level FlightAware Approximate
04:24PM 29.5642 -81.6094 341° North  Level FlightAware Approximate
04:25PM 29.6771 -81.6553 341° North  Level FlightAware Approximate
04:26PM 29.7901 -81.7012 341° North  Level FlightAware Approximate
04:27PM 29.9031 -81.7473 341° North  Level FlightAware Approximate
04:28PM 30.0160 -81.7935 341° North  Level FlightAware Approximate
04:29PM 30.1289 -81.8398 340° North  Level FlightAware Approximate
04:30PM 30.2400 -81.8915 339° North  Level Estimated
04:31PM 30.3529 -81.9381 340° North  Level FlightAware Approximate
04:32PM 30.4657 -81.9848 340° North  Level FlightAware Approximate
04:33PM 30.5786 -82.0316 340° North  Level FlightAware Approximate
04:34PM 30.6914 -82.0785 340° North  Level FlightAware Approximate
04:35PM 30.8042 -82.1255 340° North  Level FlightAware Approximate
04:36PM 30.9151 -82.1783 339° North  Level Estimated
04:37PM 31.0276 -82.2262 340° North  Level FlightAware Approximate
04:38PM 31.1402 -82.2743 340° North  Level FlightAware Approximate
04:39PM 31.2526 -82.3225 340° North  Level FlightAware Approximate
04:40PM 31.3651 -82.3708 340° North  Level FlightAware Approximate
04:41PM 31.4776 -82.4193 340° North  Level FlightAware Approximate
04:42PM 31.5900 -82.4678 340° North  Level FlightAware Approximate
04:43PM 31.7024 -82.5164 340° North  Level FlightAware Approximate
04:44PM 31.8148 -82.5652 340° North  Level FlightAware Approximate
04:45PM 31.9254 -82.6195 339° North  Level Estimated
04:46PM 32.0378 -82.6685 340° North  Level FlightAware Approximate
04:47PM 32.1501 -82.7178 340° North  Level FlightAware Approximate
04:48PM 32.2624 -82.7671 340° North  Level FlightAware Approximate
04:49PM 32.3747 -82.8166 340° North  Level FlightAware Approximate
04:50PM 32.4851 -82.8717 339° North  Level Estimated
04:51PM 32.5973 -82.9215 339° North  Level FlightAware Approximate
04:52PM 32.7095 -82.9715 339° North  Level FlightAware Approximate
04:53PM 32.8217 -83.0216 339° North  Level FlightAware Approximate
04:54PM 32.9338 -83.0718 339° North  Level FlightAware Approximate
04:55PM 33.0459 -83.1221 339° North  Level FlightAware Approximate
04:56PM 33.1580 -83.1726 339° North  Level FlightAware Approximate
04:57PM 33.2681 -83.2290 339° North  Level Estimated
04:58PM 33.3803 -83.2795 339° North  Level FlightAware Approximate
04:59PM 33.4924 -83.3302 339° North  Level FlightAware Approximate
05:00PM 33.6045 -83.3810 339° North  Level FlightAware Approximate
05:01PM 33.7165 -83.4319 339° North  Level FlightAware Approximate
05:02PM 33.8286 -83.4829 339° North  Level FlightAware Approximate
05:03PM 33.9406 -83.5341 339° North  Level FlightAware Approximate
05:04PM 34.0526 -83.5854 339° North  Level FlightAware Approximate
05:05PM 34.1646 -83.6368 339° North  Level FlightAware Approximate
05:06PM 34.2766 -83.6884 339° North  Level FlightAware Approximate
05:07PM 34.3862 -83.7470 338° Northwest  Level Estimated
05:08PM 34.4981 -83.7987 339° North  Level FlightAware Approximate
05:09PM 34.6101 -83.8504 339° North  Level FlightAware Approximate
05:10PM 34.7196 -83.9097 338° Northwest  Level Estimated
05:11PM 34.8314 -83.9620 339° North  Level FlightAware Approximate
05:12PM 34.9432 -84.0145 339° North  Level FlightAware Approximate
05:13PM 35.0550 -84.0670 339° North  Level FlightAware Approximate
05:14PM 35.1668 -84.1198 339° North  Level FlightAware Approximate
05:15PM 35.2785 -84.1727 339° North  Level FlightAware Approximate
05:16PM 35.3903 -84.2257 339° North  Level FlightAware Approximate
05:17PM 35.5020 -84.2789 339° North  Level FlightAware Approximate
05:18PM 35.6136 -84.3322 339° North  Level FlightAware Approximate
05:19PM 35.7253 -84.3857 339° North  Level FlightAware Approximate
05:20PM 35.8341 -84.4476 338° Northwest  Level Estimated
05:21PM 35.9457 -84.5015 339° North  Level FlightAware Approximate
05:22PM 36.0572 -84.5555 339° North  Level FlightAware Approximate
05:23PM 36.1688 -84.6096 339° North  Level FlightAware Approximate
05:24PM 36.2803 -84.6640 339° North  Level FlightAware Approximate
05:25PM 36.3917 -84.7185 339° North  Level FlightAware Approximate
05:26PM 36.5032 -84.7731 338° Northwest  Level FlightAware Approximate
05:27PM 36.6146 -84.8279 338° Northwest  Level FlightAware Approximate
05:28PM 36.7260 -84.8828 338° Northwest  Level FlightAware Approximate
05:29PM 36.8340 -84.9476 337° Northwest  Level Estimated
05:30PM 36.9454 -85.0028 338° Northwest  Level FlightAware Approximate
05:31PM 37.0568 -85.0583 338° Northwest  Level FlightAware Approximate
05:32PM 37.1681 -85.1138 338° Northwest  Level FlightAware Approximate
05:33PM 37.2794 -85.1696 338° Northwest  Level FlightAware Approximate
05:34PM 37.3869 -85.2361 337° Northwest  Level Estimated
05:35PM 37.4981 -85.2920 338° Northwest  Level FlightAware Approximate
05:36PM 37.6094 -85.3481 338° Northwest  Level FlightAware Approximate
05:37PM 37.7206 -85.4044 338° Northwest  Level FlightAware Approximate
05:38PM 37.8318 -85.4608 338° Northwest  Level FlightAware Approximate
05:39PM 37.9430 -85.5174 338° Northwest  Level FlightAware Approximate
05:40PM 38.0541 -85.5742 338° Northwest  Level FlightAware Approximate
05:41PM 38.1652 -85.6312 338° Northwest  Level FlightAware Approximate
05:42PM 38.2716 -85.7013 337° Northwest  Level Estimated
05:43PM 38.3827 -85.7586 338° Northwest  Level FlightAware Approximate
05:44PM 38.4937 -85.8162 338° Northwest  Level FlightAware Approximate
05:45PM 38.6047 -85.8739 338° Northwest  Level FlightAware Approximate
05:46PM 38.7156 -85.9318 338° Northwest  Level FlightAware Approximate
05:47PM 38.8265 -85.9899 338° Northwest  Level FlightAware Approximate
05:48PM 38.9375 -86.0481 338° Northwest  Level FlightAware Approximate
05:49PM 39.0483 -86.1066 338° Northwest  Level FlightAware Approximate
05:50PM 39.1531 -86.1814 308° West  Level Estimated
05:51PM 39.2578 -86.2565 323° Northwest  Level Estimated
05:52PM 39.3625 -86.3318 308° West  Level Estimated
05:53PM 39.4676 -86.4064 331° Northwest  Level FlightAware Approximate
05:54PM 39.5721 -86.4822 308° West  Level Estimated
05:55PM 39.6749 -86.5621 329° Northwest  Level FlightAware Approximate
05:56PM 39.7795 -86.6382 309° West  Level Estimated
05:57PM 39.8840 -86.7145 309° West  Level Estimated
05:58PM 39.9884 -86.7911 306° West  Level Estimated
05:59PM 40.0928 -86.8679 304° West  Level Estimated
06:00PM 40.1972 -86.9449 North  Level Estimated
06:01PM 40.3015 -87.0222 11° North  Level Estimated
06:02PM 40.4057 -87.0997 14° North  Level Estimated
06:03PM 40.5099 -87.1774 14° North  Level Estimated
06:04PM 40.6140 -87.2554 14° North  Level Estimated
06:05PM 40.7181 -87.3336 14° North  Level Estimated
06:06PM 40.8222 -87.4121 14° North  Level Estimated
06:07PM 40.9261 -87.4908 14° North  Level Estimated
06:08PM 41.0300 -87.5698 14° North  Level Estimated
06:09PM 41.1339 -87.6490 14° North  Level Estimated
06:10PM 41.2377 -87.7285 14° North  Level Estimated
06:11PM 41.3415 -87.8082 14° North  Level Estimated
06:12PM 41.4452 -87.8882 14° North  Level Estimated
06:13PM 41.5489 -87.9684 14° North  Level Estimated
06:14PM 41.6525 -88.0489 14° North  Level Estimated
06:15PM 41.7560 -88.1296 14° North  Level Estimated
06:16PM 41.8595 -88.2106 14° North  Level Estimated
06:17PM 41.9000 -88.2333 14° North  Level FlightAware Approximate
06:18PM 41.9071 -88.2480 14° North  Level Estimated
06:19PM 41.9071 -88.2480 14° North  Level Estimated
06:20PM 41.9071 -88.2480 14° North  Level Estimated
06:21PM 41.9071 -88.2480 14° North  Level Estimated
06:22PM 41.9071 -88.2480 14° North  Level Estimated
06:23PM 41.9071 -88.2480 14° North  Level Estimated
06:24PM 41.9071 -88.2480 14° North  Level Estimated
06:25PM 41.9071 -88.2480 14° North  Level Estimated
06:26PM 41.9071 -88.2480 14° North  Level Estimated
06:27PM 41.9071 -88.2480 14° North  Level Estimated
06:28PM 41.9071 -88.2480 14° North  Level Estimated
06:29PM 41.9071 -88.2480 14° North  Level Estimated
06:30PM 41.9071 -88.2480 14° North  Level Estimated
06:31PM 41.9071 -88.2480 14° North  Level Estimated
06:32PM 41.9071 -88.2480 14° North  Level Estimated
06:33PM 41.9071 -88.2480 14° North  Level Estimated
06:34PM 41.9071 -88.2480 14° North  Level Estimated